< VanCam Weather - WU Station History
^^
Station Historical Data
Daily Summary for January 12, 2018 Units:  Both    English   Metric
« Previous Day
Next Day »
Daily Weekly Monthly Yearly Custom
  High: Low: Average:
Temperature: 51.2 °F /  10.7 °C 46.0 °F /  7.8 °C 48.8 °F /  9.3 °C
Dew Point: 48.7 °F /  9.3 °C 44.9 °F /  7.2 °C 47.2 °F /  8.4 °C
Humidity: 98% 88% 94%
Wind Speed: 9.2mph /  14.8km/h - 2.2mph /  3.5km/h
Wind Gust: 9.2mph /  14.8km/h - -
Wind- - SSE
Pressure: 30.42 in /  1030 hPa 30.15 in /  1020.9 hPa -
Precipitation: 0.06 in /  1.52 mm    
Historical Graphs
 
 
Tabular Data for January 12, 2018
Time Temperature Dew Point Pressure Wind Wind Speed Wind Gust Humidity Rainfall Rate (Hourly) solar Conditions
00:08 49.9 °F /  9.9 °C 48.2 °F /  9 °C 30.15in /  1020.9hPa SE 3.5mph /  5.6km/h 3.5mph /  5.6km/h 94% 0.00in /  0mm WeatherDisplay:10.37 W/m2 RA
00:26 49.9 °F /  9.9 °C 48.5 °F /  9.2 °C 30.16in /  1021.2hPa South 9.2mph /  14.8km/h 9.2mph /  14.8km/h 95% 0.00in /  0mm WeatherDisplay:10.37 W/m2 CLR
00:37 49.9 °F /  9.9 °C 48.2 °F /  9 °C 30.16in /  1021.2hPa SW 3.5mph /  5.6km/h 3.5mph /  5.6km/h 94% 0.00in /  0mm WeatherDisplay:10.37 W/m2 CLR
00:42 49.8 °F /  9.9 °C 48.4 °F /  9.1 °C 30.16in /  1021.2hPa West 3.5mph /  5.6km/h 3.5mph /  5.6km/h 95% 0.00in /  0mm WeatherDisplay:10.37 W/m2 CLR
00:50 49.7 °F /  9.8 °C 48.3 °F /  9.1 °C 30.17in /  1021.6hPa SSW 3.5mph /  5.6km/h 4.2mph /  6.8km/h 95% 0.00in /  0mm WeatherDisplay:10.37 W/m2 CLR
00:55 49.7 °F /  9.8 °C 48.3 °F /  9.1 °C 30.17in /  1021.6hPa SSW 1.2mph /  1.9km/h   95% 0.00in /  0mm WeatherDisplay:10.37 W/m2 CLR
01:07 49.6 °F /  9.8 °C 48.2 °F /  9 °C 30.17in /  1021.6hPa WSW 8.1mph /  13km/h 8.1mph /  13km/h 95% 0.00in /  0mm WeatherDisplay:10.37 W/m2 CLR
01:13 49.6 °F /  9.8 °C 48.2 °F /  9 °C 30.17in /  1021.6hPa SSE 6.9mph /  11.1km/h 6.9mph /  11.1km/h 95% 0.00in /  0mm WeatherDisplay:10.37 W/m2 CLR
01:20 49.7 °F /  9.8 °C 48.3 °F /  9.1 °C 30.17in /  1021.6hPa SW 4.0mph /  6.4km/h 4.0mph /  6.4km/h 95% 0.00in /  0mm WeatherDisplay:10.37 W/m2 CLR
01:34 49.6 °F /  9.8 °C 48.2 °F /  9 °C 30.18in /  1021.9hPa East 1.2mph /  1.9km/h 1.2mph /  1.9km/h 95% 0.00in /  0mm WeatherDisplay:10.37 W/m2 CLR
01:48 49.6 °F /  9.8 °C 47.9 °F /  8.8 °C 30.19in /  1022.2hPa WSW 6.9mph /  11.1km/h 6.9mph /  11.1km/h 94% 0.00in /  0mm WeatherDisplay:10.37 W/m2 CLR
01:54 49.7 °F /  9.8 °C 48.0 °F /  8.9 °C 30.19in /  1022.2hPa East 3.5mph /  5.6km/h 3.5mph /  5.6km/h 94% 0.00in /  0mm WeatherDisplay:10.37 W/m2 CLR
02:03 49.7 °F /  9.8 °C 48.0 °F /  8.9 °C 30.19in /  1022.2hPa SSE 2.3mph /  3.7km/h 2.3mph /  3.7km/h 94% 0.00in /  0mm WeatherDisplay:10.37 W/m2 CLR
02:09 49.7 °F /  9.8 °C 48.0 °F /  8.9 °C 30.20in /  1022.6hPa South 4.6mph /  7.4km/h 4.6mph /  7.4km/h 94% 0.00in /  0mm WeatherDisplay:10.37 W/m2 CLR
02:21 49.7 °F /  9.8 °C 48.0 °F /  8.9 °C 30.21in /  1022.9hPa NE 2.3mph /  3.7km/h 2.3mph /  3.7km/h 94% 0.00in /  0mm WeatherDisplay:10.37 W/m2 CLR
02:29 49.5 °F /  9.7 °C 48.1 °F /  8.9 °C 30.21in /  1022.9hPa SW 3.5mph /  5.6km/h 3.5mph /  5.6km/h 95% 0.01in /  0.25mm WeatherDisplay:10.37 W/m2 RA
02:35 49.4 °F /  9.7 °C 48.0 °F /  8.9 °C 30.21in /  1022.9hPa SW 4.6mph /  7.4km/h 4.6mph /  7.4km/h 95% 0.02in /  0.51mm WeatherDisplay:10.37 W/m2 RA
02:48 49.2 °F /  9.6 °C 48.1 °F /  8.9 °C 30.22in /  1023.2hPa SE 3.5mph /  5.6km/h 3.5mph /  5.6km/h 96% 0.02in /  0.51mm WeatherDisplay:10.37 W/m2
02:56 49.2 °F /  9.6 °C 48.1 °F /  8.9 °C 30.22in /  1023.2hPa NW 4.0mph /  6.4km/h 4.0mph /  6.4km/h 96% 0.02in /  0.51mm WeatherDisplay:10.37 W/m2
03:02 49.3 °F /  9.6 °C 47.9 °F /  8.8 °C 30.22in /  1023.2hPa North 1.2mph /  1.9km/h 1.2mph /  1.9km/h 95% 0.02in /  0.51mm WeatherDisplay:10.37 W/m2
03:08 49.3 °F /  9.6 °C 47.9 °F /  8.8 °C 30.22in /  1023.2hPa Calm     95% 0.02in /  0.51mm WeatherDisplay:10.37 W/m2
03:18 49.3 °F /  9.6 °C 47.9 °F /  8.8 °C 30.23in /  1023.6hPa East 2.0mph /  3.2km/h 2.0mph /  3.2km/h 95% 0.02in /  0.51mm WeatherDisplay:10.37 W/m2
03:24 49.4 °F /  9.7 °C 48.0 °F /  8.9 °C 30.23in /  1023.6hPa SSE 2.3mph /  3.7km/h 2.3mph /  3.7km/h 95% 0.01in /  0.25mm WeatherDisplay:10.37 W/m2
03:33 49.4 °F /  9.7 °C 48.0 °F /  8.9 °C 30.22in /  1023.2hPa ESE 2.3mph /  3.7km/h 2.3mph /  3.7km/h 95% 0.01in /  0.25mm WeatherDisplay:10.37 W/m2
04:15 49.2 °F /  9.6 °C 48.1 °F /  8.9 °C 30.25in /  1024.3hPa WSW 2.0mph /  3.2km/h 2.0mph /  3.2km/h 96% 0.00in /  0mm WeatherDisplay:10.37 W/m2 CLR
04:23 49.1 °F /  9.5 °C 48.0 °F /  8.9 °C 30.24in /  1023.9hPa SSE 3.5mph /  5.6km/h 3.5mph /  5.6km/h 96% 0.00in /  0mm WeatherDisplay:10.37 W/m2 CLR
04:30 49.1 °F /  9.5 °C 48.0 °F /  8.9 °C 30.25in /  1024.3hPa SW 2.3mph /  3.7km/h 2.3mph /  3.7km/h 96% 0.00in /  0mm WeatherDisplay:10.37 W/m2 CLR
04:35 49.1 °F /  9.5 °C 48.0 °F /  8.9 °C 30.25in /  1024.3hPa SSE 3.5mph /  5.6km/h 3.5mph /  5.6km/h 96% 0.00in /  0mm WeatherDisplay:10.37 W/m2 CLR
04:37 49.1 °F /  9.5 °C 48.0 °F /  8.9 °C 30.25in /  1024.3hPa ESE 3.5mph /  5.6km/h 3.5mph /  5.6km/h 96% 0.00in /  0mm WeatherDisplay:10.37 W/m2 CLR
04:44 49.1 °F /  9.5 °C 48.0 °F /  8.9 °C 30.25in /  1024.3hPa South 1.2mph /  1.9km/h 1.5mph /  2.4km/h 96% 0.00in /  0mm WeatherDisplay:10.37 W/m2 CLR
05:16 49.0 °F /  9.4 °C 47.9 °F /  8.8 °C 30.26in /  1024.6hPa ESE 1.2mph /  1.9km/h 1.2mph /  1.9km/h 96% 0.00in /  0mm WeatherDisplay:10.37 W/m2 CLR
05:21 49.0 °F /  9.4 °C 47.9 °F /  8.8 °C 30.26in /  1024.6hPa NNW 2.0mph /  3.2km/h 2.0mph /  3.2km/h 96% 0.00in /  0mm WeatherDisplay:10.37 W/m2 CLR
05:26 48.9 °F /  9.4 °C 47.8 °F /  8.8 °C 30.26in /  1024.6hPa North 1.2mph /  1.9km/h 1.2mph /  1.9km/h 96% 0.00in /  0mm WeatherDisplay:10.37 W/m2 CLR
05:32 48.9 °F /  9.4 °C 47.8 °F /  8.8 °C 30.27in /  1024.9hPa East 2.0mph /  3.2km/h 2.0mph /  3.2km/h 96% 0.00in /  0mm WeatherDisplay:10.37 W/m2 CLR
05:48 49.0 °F /  9.4 °C 47.6 °F /  8.7 °C 30.27in /  1024.9hPa NNW 1.2mph /  1.9km/h 1.2mph /  1.9km/h 95% 0.00in /  0mm WeatherDisplay:10.37 W/m2 CLR
06:10 48.8 °F /  9.3 °C 47.7 °F /  8.7 °C 30.29in /  1025.6hPa SW 2.3mph /  3.7km/h 2.3mph /  3.7km/h 96% 0.02in /  0.51mm WeatherDisplay:10.37 W/m2 RA
06:15 48.8 °F /  9.3 °C 47.7 °F /  8.7 °C 30.29in /  1025.6hPa Calm     96% 0.02in /  0.51mm WeatherDisplay:10.37 W/m2 RA
06:25 48.6 °F /  9.2 °C 47.5 °F /  8.6 °C 30.29in /  1025.6hPa WSW 1.0mph /  1.6km/h 1.0mph /  1.6km/h 96% 0.03in /  0.76mm WeatherDisplay:10.37 W/m2 RA
06:30 48.6 °F /  9.2 °C 47.5 °F /  8.6 °C 30.29in /  1025.6hPa ESE 3.5mph /  5.6km/h 3.5mph /  5.6km/h 96% 0.04in /  1.02mm WeatherDisplay:10.37 W/m2 RA
06:45 48.5 °F /  9.2 °C 47.4 °F /  8.6 °C 30.29in /  1025.6hPa ESE 2.3mph /  3.7km/h 2.3mph /  3.7km/h 96% 0.04in /  1.02mm WeatherDisplay:10.37 W/m2
06:55 48.5 °F /  9.2 °C 47.4 °F /  8.6 °C 30.29in /  1025.6hPa ESE 1.2mph /  1.9km/h 1.2mph /  1.9km/h 96% 0.03in /  0.76mm WeatherDisplay:10.37 W/m2
07:03 48.4 °F /  9.1 °C 47.3 °F /  8.5 °C 30.30in /  1026hPa SW 3.5mph /  5.6km/h 3.5mph /  5.6km/h 96% 0.03in /  0.76mm WeatherDisplay:10.37 W/m2
07:16 48.4 °F /  9.1 °C 47.3 °F /  8.5 °C 30.29in /  1025.6hPa SE 1.2mph /  1.9km/h 1.2mph /  1.9km/h 96% 0.02in /  0.51mm WeatherDisplay:10.37 W/m2
07:21 48.3 °F /  9.1 °C 47.2 °F /  8.4 °C 30.30in /  1026hPa East 2.3mph /  3.7km/h 2.3mph /  3.7km/h 96% 0.01in /  0.25mm WeatherDisplay:10.37 W/m2
07:40 48.2 °F /  9 °C 47.1 °F /  8.4 °C 30.31in /  1026.3hPa SW 1.2mph /  1.9km/h 1.2mph /  1.9km/h 96% 0.00in /  0mm WeatherDisplay:10.37 W/m2 CLR
07:56 48.1 °F /  8.9 °C 47.0 °F /  8.3 °C 30.31in /  1026.3hPa East 2.3mph /  3.7km/h 2.3mph /  3.7km/h 96% 0.00in /  0mm WeatherDisplay:10.37 W/m2 CLR
08:05 48.1 °F /  8.9 °C 46.7 °F /  8.2 °C 30.31in /  1026.3hPa East 3.5mph /  5.6km/h 3.5mph /  5.6km/h 95% 0.00in /  0mm WeatherDisplay:10.37 W/m2 CLR
08:10 48.2 °F /  9 °C 46.8 °F /  8.2 °C 30.32in /  1026.6hPa South 2.3mph /  3.7km/h 2.3mph /  3.7km/h 95% 0.00in /  0mm WeatherDisplay:10.37 W/m2 CLR
08:31 48.3 °F /  9.1 °C 46.9 °F /  8.3 °C 30.32in /  1026.6hPa SSW 1.0mph /  1.6km/h   95% 0.00in /  0mm WeatherDisplay:10.37 W/m2 CLR
08:46 48.3 °F /  9.1 °C 46.9 °F /  8.3 °C 30.32in /  1026.6hPa NE 2.3mph /  3.7km/h 2.3mph /  3.7km/h 95% 0.00in /  0mm WeatherDisplay:10.37 W/m2 CLR
09:07 48.4 °F /  9.1 °C 46.8 °F /  8.2 °C 30.33in /  1027hPa SSE 3.5mph /  5.6km/h 3.5mph /  5.6km/h 94% 0.00in /  0mm WeatherDisplay:10.37 W/m2 CLR
09:25 48.8 °F /  9.3 °C 46.9 °F /  8.3 °C 30.34in /  1027.3hPa East 3.5mph /  5.6km/h 3.5mph /  5.6km/h 93% 0.00in /  0mm WeatherDisplay:10.37 W/m2 CLR
09:33 49.0 °F /  9.4 °C 46.8 °F /  8.2 °C 30.35in /  1027.7hPa WSW 1.2mph /  1.9km/h 1.2mph /  1.9km/h 92% 0.00in /  0mm WeatherDisplay:10.37 W/m2 CLR
09:45 49.1 °F /  9.5 °C 46.9 °F /  8.3 °C 30.35in /  1027.7hPa SSE 1.0mph /  1.6km/h 5.0mph /  8km/h 92% 0.00in /  0mm WeatherDisplay:10.37 W/m2 CLR
09:50 49.2 °F /  9.6 °C 47.3 °F /  8.5 °C 30.35in /  1027.7hPa Calm   0.2mph /  0.3km/h 93% 0.00in /  0mm WeatherDisplay:10.37 W/m2 CLR
09:58 49.4 °F /  9.7 °C 47.2 °F /  8.4 °C 30.36in /  1028hPa NW 2.3mph /  3.7km/h 2.3mph /  3.7km/h 92% 0.00in /  0mm WeatherDisplay:10.37 W/m2 CLR
10:03 49.5 °F /  9.7 °C 47.3 °F /  8.5 °C 30.35in /  1027.7hPa West 2.3mph /  3.7km/h 2.3mph /  3.7km/h 92% 0.00in /  0mm WeatherDisplay:10.37 W/m2 CLR
10:17 49.7 °F /  9.8 °C 47.5 °F /  8.6 °C 30.36in /  1028hPa WSW 3.5mph /  5.6km/h 3.5mph /  5.6km/h 92% 0.00in /  0mm WeatherDisplay:10.37 W/m2 CLR
10:24 49.7 °F /  9.8 °C 47.2 °F /  8.4 °C 30.36in /  1028hPa SSW 2.3mph /  3.7km/h 2.3mph /  3.7km/h 91% 0.00in /  0mm WeatherDisplay:10.37 W/m2 CLR
10:38 50.0 °F /  10 °C 47.8 °F /  8.8 °C 30.37in /  1028.3hPa SE 3.5mph /  5.6km/h 3.5mph /  5.6km/h 92% 0.00in /  0mm WeatherDisplay:10.37 W/m2 CLR
10:48 50.1 °F /  10.1 °C 47.6 °F /  8.7 °C 30.37in /  1028.3hPa WNW 3.5mph /  5.6km/h 3.5mph /  5.6km/h 91% 0.00in /  0mm WeatherDisplay:10.37 W/m2 CLR
10:56 50.3 °F /  10.2 °C 47.5 °F /  8.6 °C 30.37in /  1028.3hPa NE 3.5mph /  5.6km/h 3.5mph /  5.6km/h 90% 0.00in /  0mm WeatherDisplay:10.37 W/m2 CLR
11:02 50.4 °F /  10.2 °C 47.3 °F /  8.5 °C 30.38in /  1028.7hPa ENE 3.5mph /  5.6km/h 3.5mph /  5.6km/h 89% 0.00in /  0mm WeatherDisplay:10.37 W/m2 CLR
11:07 50.5 °F /  10.3 °C 47.7 °F /  8.7 °C 30.38in /  1028.7hPa ENE 4.6mph /  7.4km/h 4.6mph /  7.4km/h 90% 0.00in /  0mm WeatherDisplay:10.37 W/m2 CLR
11:13 50.8 °F /  10.4 °C 48.0 °F /  8.9 °C 30.38in /  1028.7hPa WNW 3.5mph /  5.6km/h 3.5mph /  5.6km/h 90% 0.00in /  0mm WeatherDisplay:10.37 W/m2 CLR
11:22 50.8 °F /  10.4 °C 47.7 °F /  8.7 °C 30.38in /  1028.7hPa SSW 3.5mph /  5.6km/h 3.5mph /  5.6km/h 89% 0.00in /  0mm WeatherDisplay:10.37 W/m2 CLR
11:31 50.7 °F /  10.4 °C 47.6 °F /  8.7 °C 30.38in /  1028.7hPa SW 3.5mph /  5.6km/h 3.5mph /  5.6km/h 89% 0.00in /  0mm WeatherDisplay:10.37 W/m2 CLR
11:39 50.7 °F /  10.4 °C 47.9 °F /  8.8 °C 30.39in /  1029hPa SSW 3.0mph /  4.8km/h 3.0mph /  4.8km/h 90% 0.00in /  0mm WeatherDisplay:10.37 W/m2 CLR
11:54 50.6 °F /  10.3 °C 47.8 °F /  8.8 °C 30.39in /  1029hPa SW 3.5mph /  5.6km/h 3.5mph /  5.6km/h 90% 0.00in /  0mm WeatherDisplay:10.37 W/m2 CLR
11:59 50.6 °F /  10.3 °C 47.5 °F /  8.6 °C 30.38in /  1028.7hPa SSW 2.3mph /  3.7km/h 2.3mph /  3.7km/h 89% 0.00in /  0mm WeatherDisplay:10.37 W/m2 CLR
12:13 50.8 °F /  10.4 °C 47.4 °F /  8.6 °C 30.38in /  1028.7hPa SSE 8.1mph /  13km/h 8.1mph /  13km/h 88% 0.00in /  0mm WeatherDisplay:10.37 W/m2 CLR
12:25 50.8 °F /  10.4 °C 47.7 °F /  8.7 °C 30.38in /  1028.7hPa West 2.3mph /  3.7km/h 2.3mph /  3.7km/h 89% 0.00in /  0mm WeatherDisplay:10.37 W/m2 CLR
12:37 50.8 °F /  10.4 °C 48.0 °F /  8.9 °C 30.38in /  1028.7hPa SSE 2.3mph /  3.7km/h 2.3mph /  3.7km/h 90% 0.00in /  0mm WeatherDisplay:10.37 W/m2 CLR
12:42 50.8 °F /  10.4 °C 48.0 °F /  8.9 °C 30.38in /  1028.7hPa South 3.5mph /  5.6km/h 3.5mph /  5.6km/h 90% 0.00in /  0mm WeatherDisplay:10.37 W/m2 CLR
12:48 50.7 °F /  10.4 °C 47.9 °F /  8.8 °C 30.39in /  1029hPa West 5.8mph /  9.3km/h 5.8mph /  9.3km/h 90% 0.00in /  0mm WeatherDisplay:10.37 W/m2 CLR
13:17 50.8 °F /  10.4 °C 48.0 °F /  8.9 °C 30.39in /  1029hPa SSW 3.5mph /  5.6km/h 3.5mph /  5.6km/h 90% 0.00in /  0mm WeatherDisplay:10.37 W/m2 CLR
13:22 50.9 °F /  10.5 °C 47.8 °F /  8.8 °C 30.39in /  1029hPa SW 4.6mph /  7.4km/h 4.6mph /  7.4km/h 89% 0.00in /  0mm WeatherDisplay:10.37 W/m2 CLR
13:28 50.9 °F /  10.5 °C 47.5 °F /  8.6 °C 30.39in /  1029hPa SSW 3.5mph /  5.6km/h 3.5mph /  5.6km/h 88% 0.00in /  0mm WeatherDisplay:10.37 W/m2 CLR
13:33 50.9 °F /  10.5 °C 48.1 °F /  8.9 °C 30.39in /  1029hPa SSW 1.2mph /  1.9km/h 1.2mph /  1.9km/h 90% 0.00in /  0mm WeatherDisplay:10.37 W/m2 CLR
14:00 51.1 °F /  10.6 °C 48.6 °F /  9.2 °C 30.39in /  1029hPa ENE 1.2mph /  1.9km/h   91% 0.00in /  0mm WeatherDisplay:10.37 W/m2 CLR
14:06 51.2 °F /  10.7 °C 48.7 °F /  9.3 °C 30.39in /  1029hPa ENE 1.2mph /  1.9km/h 1.2mph /  1.9km/h 91% 0.00in /  0mm WeatherDisplay:10.37 W/m2 CLR
14:12 51.2 °F /  10.7 °C 48.7 °F /  9.3 °C 30.40in /  1029.3hPa Calm     91% 0.00in /  0mm WeatherDisplay:10.37 W/m2 CLR
14:19 51.1 °F /  10.6 °C 48.3 °F /  9.1 °C 30.40in /  1029.3hPa SSE 3.5mph /  5.6km/h 3.5mph /  5.6km/h 90% 0.00in /  0mm WeatherDisplay:10.37 W/m2 CLR
14:26 50.9 °F /  10.5 °C 48.7 °F /  9.3 °C 30.40in /  1029.3hPa NE 2.3mph /  3.7km/h   92% 0.00in /  0mm WeatherDisplay:10.37 W/m2 CLR
14:38 50.8 °F /  10.4 °C 48.3 °F /  9.1 °C 30.40in /  1029.3hPa SSE 2.3mph /  3.7km/h 2.3mph /  3.7km/h 91% 0.00in /  0mm WeatherDisplay:10.37 W/m2 CLR
14:47 50.9 °F /  10.5 °C 48.7 °F /  9.3 °C 30.40in /  1029.3hPa SE 2.3mph /  3.7km/h 2.3mph /  3.7km/h 92% 0.00in /  0mm WeatherDisplay:10.37 W/m2 CLR
14:57 50.9 °F /  10.5 °C 48.1 °F /  8.9 °C 30.41in /  1029.7hPa SSE 1.2mph /  1.9km/h 1.2mph /  1.9km/h 90% 0.00in /  0mm WeatherDisplay:10.37 W/m2 CLR
15:06 51.0 °F /  10.6 °C 48.2 °F /  9 °C 30.41in /  1029.7hPa ENE 1.2mph /  1.9km/h 1.2mph /  1.9km/h 90% 0.00in /  0mm WeatherDisplay:10.37 W/m2 CLR
15:22 51.0 °F /  10.6 °C 47.6 °F /  8.7 °C 30.42in /  1030hPa South 3.5mph /  5.6km/h 3.5mph /  5.6km/h 88% 0.00in /  0mm WeatherDisplay:10.37 W/m2 CLR
15:50 50.9 °F /  10.5 °C 47.8 °F /  8.8 °C 30.41in /  1029.7hPa West 1.2mph /  1.9km/h 1.2mph /  1.9km/h 89% 0.00in /  0mm WeatherDisplay:10.37 W/m2 CLR
16:01 50.8 °F /  10.4 °C 48.0 °F /  8.9 °C 30.41in /  1029.7hPa Calm     90% 0.00in /  0mm WeatherDisplay:10.37 W/m2 CLR
16:09 50.7 °F /  10.4 °C 47.9 °F /  8.8 °C 30.41in /  1029.7hPa West 1.2mph /  1.9km/h 1.2mph /  1.9km/h 90% 0.00in /  0mm WeatherDisplay:10.37 W/m2 CLR
16:19 50.5 °F /  10.3 °C 47.7 °F /  8.7 °C 30.41in /  1029.7hPa West 1.2mph /  1.9km/h 1.2mph /  1.9km/h 90% 0.00in /  0mm WeatherDisplay:10.37 W/m2 CLR
16:51 50.1 °F /  10.1 °C 47.9 °F /  8.8 °C 30.41in /  1029.7hPa Calm     92% 0.00in /  0mm WeatherDisplay:10.37 W/m2 CLR
16:58 49.9 °F /  9.9 °C 48.0 °F /  8.9 °C 30.41in /  1029.7hPa Calm     93% 0.00in /  0mm WeatherDisplay:10.37 W/m2 CLR
17:03 49.6 °F /  9.8 °C 47.7 °F /  8.7 °C 30.41in /  1029.7hPa Calm     93% 0.00in /  0mm WeatherDisplay:10.37 W/m2 CLR
17:10 49.1 °F /  9.5 °C 47.2 °F /  8.4 °C 30.41in /  1029.7hPa Calm     93% 0.00in /  0mm WeatherDisplay:10.37 W/m2 CLR
17:18 48.7 °F /  9.3 °C 46.8 °F /  8.2 °C 30.41in /  1029.7hPa Calm     93% 0.00in /  0mm WeatherDisplay:10.37 W/m2 CLR
17:23 48.4 °F /  9.1 °C 46.8 °F /  8.2 °C 30.41in /  1029.7hPa Calm     94% 0.00in /  0mm WeatherDisplay:10.37 W/m2 CLR
17:34 47.8 °F /  8.8 °C 46.2 °F /  7.9 °C 30.41in /  1029.7hPa NNE 1.2mph /  1.9km/h 1.2mph /  1.9km/h 94% 0.00in /  0mm WeatherDisplay:10.37 W/m2 CLR
17:49 47.4 °F /  8.6 °C 46.3 °F /  7.9 °C 30.40in /  1029.3hPa NNE 1.2mph /  1.9km/h 1.2mph /  1.9km/h 96% 0.00in /  0mm WeatherDisplay:10.37 W/m2 CLR
17:57 47.3 °F /  8.5 °C 46.2 °F /  7.9 °C 30.40in /  1029.3hPa NNE 1.2mph /  1.9km/h 1.2mph /  1.9km/h 96% 0.00in /  0mm WeatherDisplay:10.37 W/m2 CLR
18:02 47.2 °F /  8.4 °C 46.1 °F /  7.8 °C 30.40in /  1029.3hPa ENE 1.2mph /  1.9km/h 1.2mph /  1.9km/h 96% 0.00in /  0mm WeatherDisplay:10.37 W/m2 CLR
18:15 46.9 °F /  8.3 °C 45.8 °F /  7.7 °C 30.40in /  1029.3hPa ENE 2.3mph /  3.7km/h 2.3mph /  3.7km/h 96% 0.00in /  0mm WeatherDisplay:10.37 W/m2 CLR
18:28 46.4 °F /  8 °C 45.0 °F /  7.2 °C 30.40in /  1029.3hPa ENE 1.2mph /  1.9km/h 1.2mph /  1.9km/h 95% 0.00in /  0mm WeatherDisplay:10.37 W/m2 CLR
18:43 46.0 °F /  7.8 °C 44.9 °F /  7.2 °C 30.41in /  1029.7hPa ENE 2.3mph /  3.7km/h 2.3mph /  3.7km/h 96% 0.00in /  0mm WeatherDisplay:10.37 W/m2 CLR
18:52 46.0 °F /  7.8 °C 44.9 °F /  7.2 °C 30.41in /  1029.7hPa ENE 2.3mph /  3.7km/h 2.3mph /  3.7km/h 96% 0.00in /  0mm WeatherDisplay:10.37 W/m2 CLR
18:58 46.0 °F /  7.8 °C 45.2 °F /  7.3 °C 30.41in /  1029.7hPa ENE 2.3mph /  3.7km/h 2.3mph /  3.7km/h 97% 0.00in /  0mm WeatherDisplay:10.37 W/m2 CLR
19:10 46.0 °F /  7.8 °C 45.2 °F /  7.3 °C 30.41in /  1029.7hPa ENE 2.3mph /  3.7km/h 2.3mph /  3.7km/h 97% 0.00in /  0mm WeatherDisplay:10.37 W/m2 CLR
19:16 46.1 °F /  7.8 °C 45.3 °F /  7.4 °C 30.41in /  1029.7hPa ENE 2.3mph /  3.7km/h 2.3mph /  3.7km/h 97% 0.00in /  0mm WeatherDisplay:10.37 W/m2 CLR
19:37 46.0 °F /  7.8 °C 45.2 °F /  7.3 °C 30.41in /  1029.7hPa ENE 2.3mph /  3.7km/h 2.3mph /  3.7km/h 97% 0.00in /  0mm WeatherDisplay:10.37 W/m2 CLR
19:42 46.0 °F /  7.8 °C 45.2 °F /  7.3 °C 30.41in /  1029.7hPa South 1.0mph /  1.6km/h 1.0mph /  1.6km/h 97% 0.00in /  0mm WeatherDisplay:10.37 W/m2 CLR
19:55 46.1 °F /  7.8 °C 45.3 °F /  7.4 °C 30.41in /  1029.7hPa South 2.0mph /  3.2km/h 2.0mph /  3.2km/h 97% 0.00in /  0mm WeatherDisplay:10.37 W/m2 CLR
20:01 46.1 °F /  7.8 °C 45.3 °F /  7.4 °C 30.40in /  1029.3hPa South 1.2mph /  1.9km/h 1.2mph /  1.9km/h 97% 0.00in /  0mm WeatherDisplay:10.37 W/m2 CLR
20:15 46.1 °F /  7.8 °C 45.3 °F /  7.4 °C 30.41in /  1029.7hPa South 1.2mph /  1.9km/h 1.2mph /  1.9km/h 97% 0.00in /  0mm WeatherDisplay:10.37 W/m2 CLR
20:20 46.1 °F /  7.8 °C 45.3 °F /  7.4 °C 30.40in /  1029.3hPa South 2.3mph /  3.7km/h 2.3mph /  3.7km/h 97% 0.00in /  0mm WeatherDisplay:10.37 W/m2 CLR
20:27 46.1 °F /  7.8 °C 45.3 °F /  7.4 °C 30.41in /  1029.7hPa South 2.3mph /  3.7km/h 2.3mph /  3.7km/h 97% 0.00in /  0mm WeatherDisplay:10.37 W/m2 CLR
20:33 46.1 °F /  7.8 °C 45.3 °F /  7.4 °C 30.41in /  1029.7hPa Calm     97% 0.00in /  0mm WeatherDisplay:10.37 W/m2 CLR
20:38 46.0 °F /  7.8 °C 45.2 °F /  7.3 °C 30.40in /  1029.3hPa Calm     97% 0.00in /  0mm WeatherDisplay:10.37 W/m2 CLR
21:03 46.0 °F /  7.8 °C 45.2 °F /  7.3 °C 30.40in /  1029.3hPa Calm     97% 0.00in /  0mm WeatherDisplay:10.37 W/m2 CLR
21:08 46.1 °F /  7.8 °C 45.6 °F /  7.6 °C 30.40in /  1029.3hPa Calm     98% 0.00in /  0mm WeatherDisplay:10.37 W/m2 CLR
21:33 46.3 °F /  7.9 °C 45.8 °F /  7.7 °C 30.40in /  1029.3hPa Calm     98% 0.00in /  0mm WeatherDisplay:10.37 W/m2 CLR
21:49 46.6 °F /  8.1 °C 46.1 °F /  7.8 °C 30.40in /  1029.3hPa Calm     98% 0.00in /  0mm WeatherDisplay:10.37 W/m2 CLR
21:54 46.8 °F /  8.2 °C 46.3 °F /  7.9 °C 30.40in /  1029.3hPa Calm     98% 0.00in /  0mm WeatherDisplay:10.37 W/m2 CLR
22:00 46.9 °F /  8.3 °C 46.1 °F /  7.8 °C 30.41in /  1029.7hPa Calm     97% 0.00in /  0mm WeatherDisplay:10.37 W/m2 CLR
22:09 47.1 °F /  8.4 °C 46.3 °F /  7.9 °C 30.41in /  1029.7hPa East 2.3mph /  3.7km/h 2.3mph /  3.7km/h 97% 0.00in /  0mm WeatherDisplay:10.37 W/m2 CLR
22:15 47.0 °F /  8.3 °C 45.9 °F /  7.7 °C 30.42in /  1030hPa East 1.2mph /  1.9km/h 1.2mph /  1.9km/h 96% 0.00in /  0mm WeatherDisplay:10.37 W/m2 CLR
22:21 46.9 °F /  8.3 °C 45.8 °F /  7.7 °C 30.42in /  1030hPa East 2.3mph /  3.7km/h 2.3mph /  3.7km/h 96% 0.00in /  0mm WeatherDisplay:10.37 W/m2 CLR
22:29 46.8 °F /  8.2 °C 45.7 °F /  7.6 °C 30.41in /  1029.7hPa East 2.3mph /  3.7km/h 2.3mph /  3.7km/h 96% 0.00in /  0mm WeatherDisplay:10.37 W/m2 CLR
22:42 46.9 °F /  8.3 °C 46.1 °F /  7.8 °C 30.41in /  1029.7hPa ENE 2.3mph /  3.7km/h 2.3mph /  3.7km/h 97% 0.00in /  0mm WeatherDisplay:10.37 W/m2 CLR
22:48 47.0 °F /  8.3 °C 46.2 °F /  7.9 °C 30.41in /  1029.7hPa ENE 2.3mph /  3.7km/h 2.3mph /  3.7km/h 97% 0.00in /  0mm WeatherDisplay:10.37 W/m2 CLR
22:54 47.0 °F /  8.3 °C 46.2 °F /  7.9 °C 30.41in /  1029.7hPa ENE 1.2mph /  1.9km/h 1.2mph /  1.9km/h 97% 0.00in /  0mm WeatherDisplay:10.37 W/m2 CLR
23:02 47.0 °F /  8.3 °C 46.2 °F /  7.9 °C 30.42in /  1030hPa ENE 2.3mph /  3.7km/h 2.3mph /  3.7km/h 97% 0.00in /  0mm WeatherDisplay:10.37 W/m2 CLR
23:08 47.0 °F /  8.3 °C 46.2 °F /  7.9 °C 30.42in /  1030hPa ENE 1.2mph /  1.9km/h   97% 0.00in /  0mm WeatherDisplay:10.37 W/m2 CLR
23:32 46.8 °F /  8.2 °C 46.0 °F /  7.8 °C 30.41in /  1029.7hPa Calm     97% 0.00in /  0mm WeatherDisplay:10.37 W/m2 CLR
23:37 46.8 °F /  8.2 °C 46.0 °F /  7.8 °C 30.41in /  1029.7hPa ENE 2.0mph /  3.2km/h 2.0mph /  3.2km/h 97% 0.00in /  0mm WeatherDisplay:10.37 W/m2 CLR
23:43 46.8 °F /  8.2 °C 46.0 °F /  7.8 °C 30.41in /  1029.7hPa ENE 2.3mph /  3.7km/h 2.3mph /  3.7km/h 97% 0.00in /  0mm WeatherDisplay:10.37 W/m2 CLR
23:51 46.8 °F /  8.2 °C 46.0 °F /  7.8 °C 30.41in /  1029.7hPa ENE 1.2mph /  1.9km/h 1.2mph /  1.9km/h 97% 0.00in /  0mm WeatherDisplay:10.37 W/m2 CLR
23:57 46.8 °F /  8.2 °C 46.0 °F /  7.8 °C 30.41in /  1029.7hPa ENE 1.0mph /  1.6km/h 1.0mph /  1.6km/h 97% 0.00in /  0mm WeatherDisplay:10.37 W/m2 CLR
VanCam Weather
Compliments of Weather Underground - 4 mb